sensor_id;sensor_type;location;lat;lon;timestamp;P1;durP1;ratioP1;P2;durP2;ratioP2
40959;SDS011;27842;52.272;8.052;2023-04-19T00:00:58;15.93;;;5.60;;
40959;SDS011;27842;52.272;8.052;2023-04-19T00:03:25;13.10;;;5.03;;
40959;SDS011;27842;52.272;8.052;2023-04-19T00:05:51;12.52;;;5.72;;
40959;SDS011;27842;52.272;8.052;2023-04-19T00:08:23;13.63;;;5.43;;
40959;SDS011;27842;52.272;8.052;2023-04-19T00:10:49;12.05;;;5.15;;
40959;SDS011;27842;52.272;8.052;2023-04-19T00:13:14;14.15;;;5.22;;
40959;SDS011;27842;52.272;8.052;2023-04-19T00:15:40;13.02;;;5.05;;
40959;SDS011;27842;52.272;8.052;2023-04-19T00:18:05;14.45;;;5.20;;
40959;SDS011;27842;52.272;8.052;2023-04-19T00:20:31;11.38;;;5.32;;
40959;SDS011;27842;52.272;8.052;2023-04-19T00:22:57;14.38;;;5.68;;
40959;SDS011;27842;52.272;8.052;2023-04-19T00:25:23;15.00;;;5.28;;
40959;SDS011;27842;52.272;8.052;2023-04-19T00:27:49;11.65;;;4.97;;
40959;SDS011;27842;52.272;8.052;2023-04-19T00:30:14;14.27;;;5.40;;
40959;SDS011;27842;52.272;8.052;2023-04-19T00:32:40;13.00;;;5.13;;
40959;SDS011;27842;52.272;8.052;2023-04-19T00:35:05;11.70;;;5.35;;
40959;SDS011;27842;52.272;8.052;2023-04-19T00:37:31;16.35;;;5.72;;
40959;SDS011;27842;52.272;8.052;2023-04-19T00:39:57;13.88;;;5.70;;
40959;SDS011;27842;52.272;8.052;2023-04-19T00:42:22;13.52;;;6.25;;
40959;SDS011;27842;52.272;8.052;2023-04-19T00:44:48;12.77;;;5.32;;
40959;SDS011;27842;52.272;8.052;2023-04-19T00:47:13;12.80;;;5.30;;
40959;SDS011;27842;52.272;8.052;2023-04-19T00:49:39;13.93;;;5.25;;
40959;SDS011;27842;52.272;8.052;2023-04-19T00:52:06;13.38;;;4.95;;
40959;SDS011;27842;52.272;8.052;2023-04-19T00:54:32;12.43;;;5.95;;
40959;SDS011;27842;52.272;8.052;2023-04-19T00:56:58;12.90;;;5.05;;
40959;SDS011;27842;52.272;8.052;2023-04-19T00:59:23;13.27;;;5.10;;
40959;SDS011;27842;52.272;8.052;2023-04-19T01:01:49;14.27;;;5.57;;
40959;SDS011;27842;52.272;8.052;2023-04-19T01:04:15;11.88;;;4.88;;
40959;SDS011;27842;52.272;8.052;2023-04-19T01:06:41;14.07;;;5.13;;
40959;SDS011;27842;52.272;8.052;2023-04-19T01:09:06;13.20;;;5.07;;
40959;SDS011;27842;52.272;8.052;2023-04-19T01:11:33;15.82;;;5.00;;
40959;SDS011;27842;52.272;8.052;2023-04-19T01:13:58;14.80;;;5.53;;
40959;SDS011;27842;52.272;8.052;2023-04-19T01:16:24;12.95;;;5.75;;
40959;SDS011;27842;52.272;8.052;2023-04-19T01:18:51;14.60;;;5.18;;
40959;SDS011;27842;52.272;8.052;2023-04-19T01:21:16;13.73;;;5.30;;
40959;SDS011;27842;52.272;8.052;2023-04-19T01:23:42;12.68;;;5.53;;
40959;SDS011;27842;52.272;8.052;2023-04-19T01:26:08;13.20;;;4.97;;
40959;SDS011;27842;52.272;8.052;2023-04-19T01:28:33;14.25;;;5.25;;
40959;SDS011;27842;52.272;8.052;2023-04-19T01:30:59;12.82;;;5.00;;
40959;SDS011;27842;52.272;8.052;2023-04-19T01:33:25;12.73;;;5.18;;
40959;SDS011;27842;52.272;8.052;2023-04-19T01:35:50;13.00;;;4.82;;
40959;SDS011;27842;52.272;8.052;2023-04-19T01:38:16;13.85;;;5.47;;
40959;SDS011;27842;52.272;8.052;2023-04-19T01:40:42;11.98;;;5.13;;
40959;SDS011;27842;52.272;8.052;2023-04-19T01:43:07;14.45;;;5.45;;
40959;SDS011;27842;52.272;8.052;2023-04-19T01:45:37;12.43;;;5.05;;
40959;SDS011;27842;52.272;8.052;2023-04-19T01:48:03;12.55;;;4.60;;
40959;SDS011;27842;52.272;8.052;2023-04-19T01:50:29;12.80;;;4.95;;
40959;SDS011;27842;52.272;8.052;2023-04-19T01:52:56;13.45;;;5.55;;
40959;SDS011;27842;52.272;8.052;2023-04-19T01:55:22;12.48;;;5.03;;
40959;SDS011;27842;52.272;8.052;2023-04-19T01:57:51;11.20;;;4.95;;
40959;SDS011;27842;52.272;8.052;2023-04-19T02:00:17;16.40;;;5.15;;
40959;SDS011;27842;52.272;8.052;2023-04-19T02:02:43;12.18;;;5.13;;
40959;SDS011;27842;52.272;8.052;2023-04-19T02:05:09;11.38;;;4.78;;
40959;SDS011;27842;52.272;8.052;2023-04-19T02:07:35;15.02;;;5.20;;
40959;SDS011;27842;52.272;8.052;2023-04-19T02:10:01;11.02;;;5.00;;
40959;SDS011;27842;52.272;8.052;2023-04-19T02:12:28;11.32;;;4.55;;
40959;SDS011;27842;52.272;8.052;2023-04-19T02:14:57;10.40;;;4.63;;
40959;SDS011;27842;52.272;8.052;2023-04-19T02:17:23;14.95;;;5.00;;
40959;SDS011;27842;52.272;8.052;2023-04-19T02:19:49;12.45;;;5.15;;
40959;SDS011;27842;52.272;8.052;2023-04-19T02:22:15;11.15;;;4.78;;
40959;SDS011;27842;52.272;8.052;2023-04-19T02:24:40;12.07;;;4.97;;
40959;SDS011;27842;52.272;8.052;2023-04-19T02:27:06;14.05;;;5.03;;
40959;SDS011;27842;52.272;8.052;2023-04-19T02:29:32;14.35;;;5.47;;
40959;SDS011;27842;52.272;8.052;2023-04-19T02:31:58;11.43;;;4.97;;
40959;SDS011;27842;52.272;8.052;2023-04-19T02:34:23;14.27;;;4.90;;
40959;SDS011;27842;52.272;8.052;2023-04-19T02:36:49;15.25;;;4.82;;
40959;SDS011;27842;52.272;8.052;2023-04-19T02:39:15;11.93;;;4.60;;
40959;SDS011;27842;52.272;8.052;2023-04-19T02:41:43;14.17;;;5.17;;
40959;SDS011;27842;52.272;8.052;2023-04-19T02:44:09;14.00;;;5.10;;
40959;SDS011;27842;52.272;8.052;2023-04-19T02:46:34;13.07;;;5.03;;
40959;SDS011;27842;52.272;8.052;2023-04-19T02:49:00;11.13;;;4.75;;
40959;SDS011;27842;52.272;8.052;2023-04-19T02:51:26;13.45;;;4.80;;
40959;SDS011;27842;52.272;8.052;2023-04-19T02:53:51;13.93;;;4.40;;
40959;SDS011;27842;52.272;8.052;2023-04-19T02:56:17;17.90;;;4.97;;
40959;SDS011;27842;52.272;8.052;2023-04-19T02:58:43;11.18;;;4.60;;
40959;SDS011;27842;52.272;8.052;2023-04-19T03:01:09;9.45;;;3.92;;
40959;SDS011;27842;52.272;8.052;2023-04-19T03:03:34;12.75;;;4.53;;
40959;SDS011;27842;52.272;8.052;2023-04-19T03:06:00;10.32;;;3.80;;
40959;SDS011;27842;52.272;8.052;2023-04-19T03:08:26;12.52;;;4.00;;
40959;SDS011;27842;52.272;8.052;2023-04-19T03:10:52;10.93;;;4.15;;
40959;SDS011;27842;52.272;8.052;2023-04-19T03:13:17;11.77;;;3.85;;
40959;SDS011;27842;52.272;8.052;2023-04-19T03:15:43;11.85;;;4.03;;
40959;SDS011;27842;52.272;8.052;2023-04-19T03:18:09;10.82;;;3.60;;
40959;SDS011;27842;52.272;8.052;2023-04-19T03:20:34;10.52;;;4.03;;
40959;SDS011;27842;52.272;8.052;2023-04-19T03:23:00;8.52;;;3.60;;
40959;SDS011;27842;52.272;8.052;2023-04-19T03:25:26;13.27;;;3.75;;
40959;SDS011;27842;52.272;8.052;2023-04-19T03:27:51;8.52;;;3.22;;
40959;SDS011;27842;52.272;8.052;2023-04-19T03:30:17;13.90;;;3.80;;
40959;SDS011;27842;52.272;8.052;2023-04-19T03:32:43;10.90;;;3.97;;
40959;SDS011;27842;52.272;8.052;2023-04-19T03:35:08;9.55;;;3.40;;
40959;SDS011;27842;52.272;8.052;2023-04-19T03:37:34;11.20;;;3.45;;
40959;SDS011;27842;52.272;8.052;2023-04-19T03:40:00;13.75;;;4.53;;
40959;SDS011;27842;52.272;8.052;2023-04-19T03:42:25;8.80;;;3.20;;
40959;SDS011;27842;52.272;8.052;2023-04-19T03:44:51;10.75;;;4.10;;
40959;SDS011;27842;52.272;8.052;2023-04-19T03:47:16;7.03;;;3.15;;
40959;SDS011;27842;52.272;8.052;2023-04-19T03:49:42;9.68;;;3.20;;
40959;SDS011;27842;52.272;8.052;2023-04-19T03:52:07;9.10;;;3.33;;
40959;SDS011;27842;52.272;8.052;2023-04-19T03:54:33;10.25;;;3.47;;
40959;SDS011;27842;52.272;8.052;2023-04-19T03:56:59;9.48;;;3.17;;
40959;SDS011;27842;52.272;8.052;2023-04-19T03:59:24;12.90;;;3.90;;
40959;SDS011;27842;52.272;8.052;2023-04-19T04:01:50;9.63;;;3.20;;
40959;SDS011;27842;52.272;8.052;2023-04-19T04:04:16;8.52;;;3.40;;
40959;SDS011;27842;52.272;8.052;2023-04-19T04:06:41;9.77;;;3.47;;
40959;SDS011;27842;52.272;8.052;2023-04-19T04:09:07;11.82;;;3.58;;
40959;SDS011;27842;52.272;8.052;2023-04-19T04:11:32;9.35;;;3.30;;
40959;SDS011;27842;52.272;8.052;2023-04-19T04:13:58;9.18;;;3.45;;
40959;SDS011;27842;52.272;8.052;2023-04-19T04:16:23;7.50;;;3.22;;
40959;SDS011;27842;52.272;8.052;2023-04-19T04:18:49;7.95;;;3.50;;
40959;SDS011;27842;52.272;8.052;2023-04-19T04:21:15;11.10;;;3.40;;
40959;SDS011;27842;52.272;8.052;2023-04-19T04:23:40;10.65;;;3.70;;
40959;SDS011;27842;52.272;8.052;2023-04-19T04:26:06;9.52;;;3.40;;
40959;SDS011;27842;52.272;8.052;2023-04-19T04:28:33;9.27;;;3.47;;
40959;SDS011;27842;52.272;8.052;2023-04-19T04:30:59;8.93;;;3.28;;
40959;SDS011;27842;52.272;8.052;2023-04-19T04:33:25;12.57;;;3.85;;
40959;SDS011;27842;52.272;8.052;2023-04-19T04:35:52;9.70;;;3.78;;
40959;SDS011;27842;52.272;8.052;2023-04-19T04:38:19;10.05;;;3.30;;
40959;SDS011;27842;52.272;8.052;2023-04-19T04:40:48;9.63;;;3.40;;
40959;SDS011;27842;52.272;8.052;2023-04-19T04:43:15;10.23;;;3.58;;
40959;SDS011;27842;52.272;8.052;2023-04-19T04:45:41;10.23;;;3.40;;
40959;SDS011;27842;52.272;8.052;2023-04-19T04:48:08;6.88;;;3.03;;
40959;SDS011;27842;52.272;8.052;2023-04-19T04:50:34;13.20;;;3.70;;
40959;SDS011;27842;52.272;8.052;2023-04-19T04:52:59;10.80;;;3.38;;
40959;SDS011;27842;52.272;8.052;2023-04-19T04:55:26;8.38;;;3.10;;
40959;SDS011;27842;52.272;8.052;2023-04-19T04:57:52;9.02;;;3.25;;
40959;SDS011;27842;52.272;8.052;2023-04-19T05:00:17;12.07;;;3.70;;
40959;SDS011;27842;52.272;8.052;2023-04-19T05:02:43;11.05;;;3.20;;
40959;SDS011;27842;52.272;8.052;2023-04-19T05:05:09;11.82;;;3.25;;
40959;SDS011;27842;52.272;8.052;2023-04-19T05:07:37;9.63;;;3.23;;
40959;SDS011;27842;52.272;8.052;2023-04-19T05:10:03;12.27;;;3.55;;
40959;SDS011;27842;52.272;8.052;2023-04-19T05:12:29;9.68;;;3.40;;
40959;SDS011;27842;52.272;8.052;2023-04-19T05:14:55;11.00;;;3.47;;
40959;SDS011;27842;52.272;8.052;2023-04-19T05:17:20;9.73;;;3.28;;
40959;SDS011;27842;52.272;8.052;2023-04-19T05:19:46;9.48;;;3.17;;
40959;SDS011;27842;52.272;8.052;2023-04-19T05:22:11;11.15;;;3.40;;
40959;SDS011;27842;52.272;8.052;2023-04-19T05:24:37;10.18;;;3.25;;
40959;SDS011;27842;52.272;8.052;2023-04-19T05:27:02;12.65;;;3.40;;
40959;SDS011;27842;52.272;8.052;2023-04-19T05:29:28;9.50;;;3.10;;
40959;SDS011;27842;52.272;8.052;2023-04-19T05:31:54;8.45;;;2.90;;
40959;SDS011;27842;52.272;8.052;2023-04-19T05:34:19;7.93;;;3.25;;
40959;SDS011;27842;52.272;8.052;2023-04-19T05:36:45;9.07;;;3.30;;
40959;SDS011;27842;52.272;8.052;2023-04-19T05:39:10;9.27;;;3.30;;
40959;SDS011;27842;52.272;8.052;2023-04-19T05:41:36;10.70;;;2.97;;
40959;SDS011;27842;52.272;8.052;2023-04-19T05:44:01;7.30;;;2.75;;
40959;SDS011;27842;52.272;8.052;2023-04-19T05:46:27;7.78;;;3.10;;
40959;SDS011;27842;52.272;8.052;2023-04-19T05:48:53;10.63;;;3.10;;
40959;SDS011;27842;52.272;8.052;2023-04-19T05:51:18;8.23;;;3.28;;
40959;SDS011;27842;52.272;8.052;2023-04-19T05:53:44;9.27;;;2.95;;
40959;SDS011;27842;52.272;8.052;2023-04-19T05:56:10;8.88;;;2.90;;
40959;SDS011;27842;52.272;8.052;2023-04-19T05:58:36;8.13;;;3.17;;
40959;SDS011;27842;52.272;8.052;2023-04-19T06:01:01;10.60;;;3.35;;
40959;SDS011;27842;52.272;8.052;2023-04-19T06:03:28;7.18;;;2.70;;
40959;SDS011;27842;52.272;8.052;2023-04-19T06:05:54;9.18;;;3.40;;
40959;SDS011;27842;52.272;8.052;2023-04-19T06:08:19;7.22;;;2.85;;
40959;SDS011;27842;52.272;8.052;2023-04-19T06:10:45;7.20;;;2.72;;
40959;SDS011;27842;52.272;8.052;2023-04-19T06:13:13;13.10;;;3.33;;
40959;SDS011;27842;52.272;8.052;2023-04-19T06:15:39;7.57;;;2.67;;
40959;SDS011;27842;52.272;8.052;2023-04-19T06:18:05;10.10;;;3.13;;
40959;SDS011;27842;52.272;8.052;2023-04-19T06:20:38;9.77;;;2.85;;
40959;SDS011;27842;52.272;8.052;2023-04-19T06:23:04;9.00;;;2.78;;
40959;SDS011;27842;52.272;8.052;2023-04-19T06:25:31;8.27;;;3.28;;
40959;SDS011;27842;52.272;8.052;2023-04-19T06:27:56;10.65;;;2.97;;
40959;SDS011;27842;52.272;8.052;2023-04-19T06:30:22;10.35;;;2.85;;
40959;SDS011;27842;52.272;8.052;2023-04-19T06:32:47;8.82;;;2.90;;
40959;SDS011;27842;52.272;8.052;2023-04-19T06:35:13;10.32;;;2.83;;
40959;SDS011;27842;52.272;8.052;2023-04-19T06:37:39;9.40;;;2.75;;
40959;SDS011;27842;52.272;8.052;2023-04-19T06:40:05;7.93;;;2.87;;
40959;SDS011;27842;52.272;8.052;2023-04-19T06:42:32;7.57;;;2.90;;
40959;SDS011;27842;52.272;8.052;2023-04-19T06:44:58;8.30;;;2.67;;
40959;SDS011;27842;52.272;8.052;2023-04-19T06:47:25;7.60;;;3.03;;
40959;SDS011;27842;52.272;8.052;2023-04-19T06:49:51;10.00;;;2.95;;
40959;SDS011;27842;52.272;8.052;2023-04-19T06:52:16;7.60;;;2.67;;
40959;SDS011;27842;52.272;8.052;2023-04-19T06:54:45;6.85;;;2.63;;
40959;SDS011;27842;52.272;8.052;2023-04-19T06:57:13;11.13;;;3.00;;
40959;SDS011;27842;52.272;8.052;2023-04-19T06:59:39;9.52;;;3.10;;
40959;SDS011;27842;52.272;8.052;2023-04-19T07:02:05;9.35;;;3.28;;
40959;SDS011;27842;52.272;8.052;2023-04-19T07:04:31;7.38;;;2.55;;
40959;SDS011;27842;52.272;8.052;2023-04-19T07:06:56;11.93;;;2.92;;
40959;SDS011;27842;52.272;8.052;2023-04-19T07:09:22;7.97;;;2.60;;
40959;SDS011;27842;52.272;8.052;2023-04-19T07:11:48;8.38;;;2.72;;
40959;SDS011;27842;52.272;8.052;2023-04-19T07:14:15;8.60;;;3.15;;
40959;SDS011;27842;52.272;8.052;2023-04-19T07:16:43;7.75;;;2.78;;
40959;SDS011;27842;52.272;8.052;2023-04-19T07:19:10;7.43;;;2.75;;
40959;SDS011;27842;52.272;8.052;2023-04-19T07:21:35;9.63;;;2.55;;
40959;SDS011;27842;52.272;8.052;2023-04-19T07:24:02;8.20;;;2.70;;
40959;SDS011;27842;52.272;8.052;2023-04-19T07:26:28;8.35;;;2.97;;
40959;SDS011;27842;52.272;8.052;2023-04-19T07:28:54;6.80;;;2.50;;
40959;SDS011;27842;52.272;8.052;2023-04-19T07:31:20;5.05;;;2.28;;
40959;SDS011;27842;52.272;8.052;2023-04-19T07:33:45;8.98;;;2.75;;
40959;SDS011;27842;52.272;8.052;2023-04-19T07:36:11;7.00;;;2.72;;
40959;SDS011;27842;52.272;8.052;2023-04-19T07:38:37;9.80;;;2.72;;
40959;SDS011;27842;52.272;8.052;2023-04-19T07:41:03;8.43;;;2.70;;
40959;SDS011;27842;52.272;8.052;2023-04-19T07:43:31;8.23;;;2.55;;
40959;SDS011;27842;52.272;8.052;2023-04-19T07:45:57;5.88;;;2.22;;
40959;SDS011;27842;52.272;8.052;2023-04-19T07:48:23;9.90;;;2.75;;
40959;SDS011;27842;52.272;8.052;2023-04-19T07:50:48;7.03;;;2.33;;
40959;SDS011;27842;52.272;8.052;2023-04-19T07:53:15;8.32;;;2.60;;
40959;SDS011;27842;52.272;8.052;2023-04-19T07:55:42;8.48;;;2.50;;
40959;SDS011;27842;52.272;8.052;2023-04-19T07:58:14;11.00;;;2.60;;
40959;SDS011;27842;52.272;8.052;2023-04-19T08:00:40;6.68;;;2.65;;
40959;SDS011;27842;52.272;8.052;2023-04-19T08:03:06;9.00;;;2.63;;
40959;SDS011;27842;52.272;8.052;2023-04-19T08:05:35;10.18;;;3.08;;
40959;SDS011;27842;52.272;8.052;2023-04-19T08:08:01;7.72;;;2.60;;
40959;SDS011;27842;52.272;8.052;2023-04-19T08:10:26;5.50;;;2.45;;
40959;SDS011;27842;52.272;8.052;2023-04-19T08:12:54;7.45;;;2.65;;
40959;SDS011;27842;52.272;8.052;2023-04-19T08:15:20;7.90;;;2.65;;
40959;SDS011;27842;52.272;8.052;2023-04-19T08:17:45;8.88;;;2.63;;
40959;SDS011;27842;52.272;8.052;2023-04-19T08:20:11;8.10;;;2.70;;
40959;SDS011;27842;52.272;8.052;2023-04-19T08:22:37;11.05;;;2.67;;
40959;SDS011;27842;52.272;8.052;2023-04-19T08:25:04;9.63;;;2.90;;
40959;SDS011;27842;52.272;8.052;2023-04-19T08:27:30;8.80;;;2.80;;
40959;SDS011;27842;52.272;8.052;2023-04-19T08:29:56;8.02;;;2.60;;
40959;SDS011;27842;52.272;8.052;2023-04-19T08:32:21;7.63;;;2.67;;
40959;SDS011;27842;52.272;8.052;2023-04-19T08:34:47;8.43;;;2.58;;
40959;SDS011;27842;52.272;8.052;2023-04-19T08:37:13;8.82;;;2.80;;
40959;SDS011;27842;52.272;8.052;2023-04-19T08:39:39;7.97;;;2.90;;
40959;SDS011;27842;52.272;8.052;2023-04-19T08:42:06;7.05;;;2.50;;
40959;SDS011;27842;52.272;8.052;2023-04-19T08:44:33;8.18;;;2.95;;
40959;SDS011;27842;52.272;8.052;2023-04-19T08:47:02;9.07;;;2.80;;
40959;SDS011;27842;52.272;8.052;2023-04-19T08:49:28;8.82;;;2.88;;
40959;SDS011;27842;52.272;8.052;2023-04-19T08:51:58;6.80;;;2.50;;
40959;SDS011;27842;52.272;8.052;2023-04-19T08:54:25;6.75;;;2.53;;
40959;SDS011;27842;52.272;8.052;2023-04-19T08:56:53;7.93;;;2.75;;
40959;SDS011;27842;52.272;8.052;2023-04-19T08:59:20;6.55;;;2.60;;
40959;SDS011;27842;52.272;8.052;2023-04-19T09:01:46;8.15;;;2.90;;
40959;SDS011;27842;52.272;8.052;2023-04-19T09:04:12;8.43;;;2.70;;
40959;SDS011;27842;52.272;8.052;2023-04-19T09:06:38;8.80;;;2.67;;
40959;SDS011;27842;52.272;8.052;2023-04-19T09:11:46;5.88;;;2.67;;
40959;SDS011;27842;52.272;8.052;2023-04-19T09:14:13;7.07;;;2.65;;
40959;SDS011;27842;52.272;8.052;2023-04-19T09:16:40;9.57;;;3.23;;
40959;SDS011;27842;52.272;8.052;2023-04-19T09:19:07;7.63;;;2.78;;
40959;SDS011;27842;52.272;8.052;2023-04-19T09:21:40;9.70;;;2.97;;
40959;SDS011;27842;52.272;8.052;2023-04-19T09:24:06;9.02;;;2.60;;
40959;SDS011;27842;52.272;8.052;2023-04-19T09:26:32;11.27;;;3.10;;
40959;SDS011;27842;52.272;8.052;2023-04-19T09:28:59;7.50;;;2.70;;
40959;SDS011;27842;52.272;8.052;2023-04-19T09:31:30;12.60;;;2.70;;
40959;SDS011;27842;52.272;8.052;2023-04-19T09:33:57;8.13;;;2.78;;
40959;SDS011;27842;52.272;8.052;2023-04-19T09:36:35;8.80;;;2.95;;
40959;SDS011;27842;52.272;8.052;2023-04-19T09:39:01;9.48;;;3.00;;
40959;SDS011;27842;52.272;8.052;2023-04-19T09:41:27;7.63;;;2.97;;
40959;SDS011;27842;52.272;8.052;2023-04-19T09:43:52;10.27;;;3.10;;
40959;SDS011;27842;52.272;8.052;2023-04-19T09:46:31;9.63;;;3.10;;
40959;SDS011;27842;52.272;8.052;2023-04-19T09:51:43;7.10;;;2.70;;
40959;SDS011;27842;52.272;8.052;2023-04-19T09:54:14;9.07;;;2.72;;
40959;SDS011;27842;52.272;8.052;2023-04-19T09:56:40;9.38;;;2.92;;
40959;SDS011;27842;52.272;8.052;2023-04-19T09:59:07;8.10;;;2.78;;
40959;SDS011;27842;52.272;8.052;2023-04-19T10:01:46;9.75;;;3.00;;
40959;SDS011;27842;52.272;8.052;2023-04-19T10:04:16;11.55;;;3.03;;
40959;SDS011;27842;52.272;8.052;2023-04-19T10:06:47;6.18;;;2.67;;
40959;SDS011;27842;52.272;8.052;2023-04-19T10:09:14;10.60;;;2.83;;
40959;SDS011;27842;52.272;8.052;2023-04-19T10:11:41;10.15;;;2.83;;
40959;SDS011;27842;52.272;8.052;2023-04-19T10:14:11;8.60;;;3.05;;
40959;SDS011;27842;52.272;8.052;2023-04-19T10:16:38;8.93;;;2.72;;
40959;SDS011;27842;52.272;8.052;2023-04-19T10:19:05;10.38;;;2.90;;
40959;SDS011;27842;52.272;8.052;2023-04-19T10:21:40;8.55;;;2.85;;
40959;SDS011;27842;52.272;8.052;2023-04-19T10:24:07;8.13;;;3.10;;
40959;SDS011;27842;52.272;8.052;2023-04-19T10:32:28;9.07;;;2.70;;
40959;SDS011;27842;52.272;8.052;2023-04-19T10:35:00;8.20;;;2.50;;
40959;SDS011;27842;52.272;8.052;2023-04-19T10:37:31;9.27;;;2.47;;
40959;SDS011;27842;52.272;8.052;2023-04-19T10:39:57;7.05;;;2.80;;
40959;SDS011;27842;52.272;8.052;2023-04-19T10:42:23;10.85;;;2.60;;
40959;SDS011;27842;52.272;8.052;2023-04-19T10:47:52;6.53;;;2.40;;
40959;SDS011;27842;52.272;8.052;2023-04-19T10:50:17;6.93;;;2.63;;
40959;SDS011;27842;52.272;8.052;2023-04-19T10:52:43;8.82;;;2.70;;
40959;SDS011;27842;52.272;8.052;2023-04-19T10:55:08;11.23;;;3.00;;
40959;SDS011;27842;52.272;8.052;2023-04-19T11:00:28;8.02;;;3.17;;
40959;SDS011;27842;52.272;8.052;2023-04-19T11:02:57;10.73;;;2.90;;
40959;SDS011;27842;52.272;8.052;2023-04-19T11:05:23;9.63;;;2.58;;
40959;SDS011;27842;52.272;8.052;2023-04-19T11:07:49;10.38;;;2.30;;
40959;SDS011;27842;52.272;8.052;2023-04-19T11:10:18;9.90;;;2.67;;
40959;SDS011;27842;52.272;8.052;2023-04-19T11:12:53;8.35;;;2.58;;
40959;SDS011;27842;52.272;8.052;2023-04-19T11:15:21;8.25;;;2.80;;
40959;SDS011;27842;52.272;8.052;2023-04-19T11:17:50;7.85;;;2.60;;
40959;SDS011;27842;52.272;8.052;2023-04-19T11:22:46;9.05;;;2.90;;
40959;SDS011;27842;52.272;8.052;2023-04-19T11:25:16;5.93;;;2.40;;
40959;SDS011;27842;52.272;8.052;2023-04-19T11:27:43;14.38;;;2.63;;
40959;SDS011;27842;52.272;8.052;2023-04-19T11:30:11;11.43;;;2.65;;
40959;SDS011;27842;52.272;8.052;2023-04-19T11:32:45;7.72;;;2.13;;
40959;SDS011;27842;52.272;8.052;2023-04-19T11:35:20;13.38;;;2.40;;
40959;SDS011;27842;52.272;8.052;2023-04-19T11:37:47;10.00;;;2.42;;
40959;SDS011;27842;52.272;8.052;2023-04-19T11:40:16;10.65;;;2.72;;
40959;SDS011;27842;52.272;8.052;2023-04-19T11:42:43;9.02;;;2.60;;
40959;SDS011;27842;52.272;8.052;2023-04-19T11:45:09;10.57;;;3.22;;
40959;SDS011;27842;52.272;8.052;2023-04-19T11:47:48;7.32;;;2.50;;
40959;SDS011;27842;52.272;8.052;2023-04-19T11:53:17;9.68;;;3.10;;
40959;SDS011;27842;52.272;8.052;2023-04-19T11:55:48;8.85;;;2.70;;
40959;SDS011;27842;52.272;8.052;2023-04-19T11:58:25;8.27;;;3.00;;
40959;SDS011;27842;52.272;8.052;2023-04-19T12:00:53;10.00;;;2.85;;
40959;SDS011;27842;52.272;8.052;2023-04-19T12:03:43;8.38;;;2.28;;
40959;SDS011;27842;52.272;8.052;2023-04-19T12:06:14;9.43;;;2.50;;
40959;SDS011;27842;52.272;8.052;2023-04-19T12:08:42;12.47;;;2.60;;
40959;SDS011;27842;52.272;8.052;2023-04-19T12:11:11;12.18;;;2.60;;
40959;SDS011;27842;52.272;8.052;2023-04-19T12:13:38;5.35;;;2.28;;
40959;SDS011;27842;52.272;8.052;2023-04-19T12:16:05;8.35;;;2.13;;
40959;SDS011;27842;52.272;8.052;2023-04-19T12:21:39;6.75;;;2.30;;
40959;SDS011;27842;52.272;8.052;2023-04-19T12:24:05;7.88;;;2.30;;
40959;SDS011;27842;52.272;8.052;2023-04-19T12:26:32;14.15;;;3.30;;
40959;SDS011;27842;52.272;8.052;2023-04-19T12:28:58;11.38;;;2.20;;
40959;SDS011;27842;52.272;8.052;2023-04-19T12:31:25;5.10;;;2.17;;
40959;SDS011;27842;52.272;8.052;2023-04-19T12:33:51;6.55;;;2.78;;
40959;SDS011;27842;52.272;8.052;2023-04-19T12:36:17;9.35;;;2.58;;
40959;SDS011;27842;52.272;8.052;2023-04-19T12:38:43;7.68;;;2.05;;
40959;SDS011;27842;52.272;8.052;2023-04-19T12:41:09;6.35;;;2.17;;
40959;SDS011;27842;52.272;8.052;2023-04-19T12:43:35;8.40;;;2.20;;
40959;SDS011;27842;52.272;8.052;2023-04-19T12:46:00;8.43;;;2.40;;
40959;SDS011;27842;52.272;8.052;2023-04-19T12:48:26;10.73;;;2.30;;
40959;SDS011;27842;52.272;8.052;2023-04-19T12:50:52;7.97;;;2.20;;
40959;SDS011;27842;52.272;8.052;2023-04-19T12:53:18;7.75;;;2.20;;
40959;SDS011;27842;52.272;8.052;2023-04-19T12:55:45;9.32;;;2.38;;
40959;SDS011;27842;52.272;8.052;2023-04-19T12:58:20;6.53;;;2.20;;
40959;SDS011;27842;52.272;8.052;2023-04-19T13:00:47;9.95;;;3.53;;
40959;SDS011;27842;52.272;8.052;2023-04-19T13:03:13;6.90;;;1.50;;
40959;SDS011;27842;52.272;8.052;2023-04-19T13:05:39;5.65;;;1.88;;
40959;SDS011;27842;52.272;8.052;2023-04-19T13:08:05;6.10;;;1.92;;
40959;SDS011;27842;52.272;8.052;2023-04-19T13:10:30;7.10;;;1.85;;
40959;SDS011;27842;52.272;8.052;2023-04-19T13:12:56;6.88;;;1.75;;
40959;SDS011;27842;52.272;8.052;2023-04-19T13:15:23;8.15;;;1.98;;
40959;SDS011;27842;52.272;8.052;2023-04-19T13:17:49;5.05;;;1.90;;
40959;SDS011;27842;52.272;8.052;2023-04-19T13:20:14;7.82;;;2.03;;
40959;SDS011;27842;52.272;8.052;2023-04-19T13:22:41;5.85;;;1.92;;
40959;SDS011;27842;52.272;8.052;2023-04-19T13:25:06;7.13;;;1.77;;
40959;SDS011;27842;52.272;8.052;2023-04-19T13:27:32;19.45;;;2.50;;
40959;SDS011;27842;52.272;8.052;2023-04-19T13:29:58;12.43;;;2.35;;
40959;SDS011;27842;52.272;8.052;2023-04-19T13:32:23;6.18;;;2.00;;
40959;SDS011;27842;52.272;8.052;2023-04-19T13:34:49;5.70;;;1.90;;
40959;SDS011;27842;52.272;8.052;2023-04-19T13:37:15;9.57;;;2.03;;
40959;SDS011;27842;52.272;8.052;2023-04-19T13:39:41;6.72;;;2.00;;
40959;SDS011;27842;52.272;8.052;2023-04-19T13:42:07;8.30;;;1.98;;
40959;SDS011;27842;52.272;8.052;2023-04-19T13:44:32;5.68;;;1.90;;
40959;SDS011;27842;52.272;8.052;2023-04-19T13:46:58;8.65;;;2.30;;
40959;SDS011;27842;52.272;8.052;2023-04-19T13:49:24;6.65;;;2.20;;
40959;SDS011;27842;52.272;8.052;2023-04-19T13:51:50;5.78;;;1.90;;
40959;SDS011;27842;52.272;8.052;2023-04-19T13:54:16;7.10;;;2.60;;
40959;SDS011;27842;52.272;8.052;2023-04-19T13:56:42;9.13;;;2.05;;
40959;SDS011;27842;52.272;8.052;2023-04-19T13:59:08;4.30;;;1.90;;
40959;SDS011;27842;52.272;8.052;2023-04-19T14:01:37;7.00;;;2.17;;
40959;SDS011;27842;52.272;8.052;2023-04-19T14:06:28;8.38;;;1.90;;
40959;SDS011;27842;52.272;8.052;2023-04-19T14:08:53;6.00;;;2.20;;
40959;SDS011;27842;52.272;8.052;2023-04-19T14:11:19;7.50;;;2.38;;
40959;SDS011;27842;52.272;8.052;2023-04-19T14:13:45;10.40;;;2.53;;
40959;SDS011;27842;52.272;8.052;2023-04-19T14:16:12;11.85;;;2.13;;
40959;SDS011;27842;52.272;8.052;2023-04-19T14:18:38;9.70;;;2.35;;
40959;SDS011;27842;52.272;8.052;2023-04-19T14:21:04;5.28;;;2.00;;
40959;SDS011;27842;52.272;8.052;2023-04-19T14:23:29;7.03;;;2.28;;
40959;SDS011;27842;52.272;8.052;2023-04-19T14:25:56;5.75;;;2.25;;
40959;SDS011;27842;52.272;8.052;2023-04-19T14:28:25;6.57;;;2.20;;
40959;SDS011;27842;52.272;8.052;2023-04-19T14:33:16;9.95;;;2.65;;
40959;SDS011;27842;52.272;8.052;2023-04-19T14:35:41;8.18;;;2.50;;
40959;SDS011;27842;52.272;8.052;2023-04-19T14:38:07;9.95;;;2.35;;
40959;SDS011;27842;52.272;8.052;2023-04-19T14:40:33;7.88;;;2.10;;
40959;SDS011;27842;52.272;8.052;2023-04-19T14:42:58;4.88;;;2.30;;
40959;SDS011;27842;52.272;8.052;2023-04-19T14:45:24;8.65;;;2.45;;
40959;SDS011;27842;52.272;8.052;2023-04-19T14:47:51;6.50;;;2.70;;
40959;SDS011;27842;52.272;8.052;2023-04-19T14:50:17;8.73;;;2.33;;
40959;SDS011;27842;52.272;8.052;2023-04-19T14:52:42;9.57;;;2.22;;
40959;SDS011;27842;52.272;8.052;2023-04-19T14:55:08;5.07;;;2.50;;
40959;SDS011;27842;52.272;8.052;2023-04-19T14:57:35;7.22;;;2.33;;
40959;SDS011;27842;52.272;8.052;2023-04-19T15:00:00;7.53;;;2.70;;
40959;SDS011;27842;52.272;8.052;2023-04-19T15:02:26;10.32;;;3.67;;
40959;SDS011;27842;52.272;8.052;2023-04-19T15:04:52;14.73;;;2.92;;
40959;SDS011;27842;52.272;8.052;2023-04-19T15:07:18;6.70;;;2.50;;
40959;SDS011;27842;52.272;8.052;2023-04-19T15:09:44;6.97;;;2.50;;